Time;durP1;ratioP1;P1;durP2;ratioP2;P2;SDS_P1;SDS_P2;PMS_P1;PMS_P2;Temp;Humidity;BMP_temperature;BMP_pressure;BME280_temperature;BME280_humidity;BME280_pressure;Samples;Min_cycle;Max_cycle;Signal;HPM_P1;HPM_P2
2022/05/23 00:01:53;;;;;;;11.60;5.40;;;;;;;17.74;56.93;100648.22;6254941;23;20170;-79
2022/05/23 00:04:18;;;;;;;10.10;5.47;;;;;;;17.70;57.25;100648.72;6256480;23;20351;-79
2022/05/23 00:06:44;;;;;;;8.75;5.78;;;;;;;17.70;57.05;100644.22;6229730;23;20056;-79
2022/05/23 00:09:10;;;;;;;10.52;5.20;;;;;;;17.70;57.09;100637.97;6254982;23;20008;-79
2022/05/23 00:11:36;;;;;;;9.82;5.38;;;;;;;17.68;57.97;100648.88;6254102;23;20000;-79
2022/05/23 00:14:01;;;;;;;10.93;5.50;;;;;;;17.67;57.21;100647.22;6254130;23;20008;-79
2022/05/23 00:16:33;;;;;;;13.15;5.18;;;;;;;17.62;57.45;100638.84;6254233;23;20004;-79
2022/05/23 00:18:58;;;;;;;10.98;5.95;;;;;;;17.63;57.36;100631.63;6227141;23;20012;-79
2022/05/23 00:21:23;;;;;;;12.98;5.78;;;;;;;17.61;57.21;100637.16;6253767;23;20008;-79
2022/05/23 00:23:48;;;;;;;9.10;5.53;;;;;;;17.61;57.43;100625.56;6257328;23;20008;-79
2022/05/23 00:26:20;;;;;;;12.23;5.70;;;;;;;17.61;56.82;100625.56;6232106;23;20318;-79
2022/05/23 00:28:46;;;;;;;10.45;5.43;;;;;;;17.56;57.40;100621.53;6260012;23;20314;-79
2022/05/23 00:31:12;;;;;;;11.85;5.80;;;;;;;17.54;57.83;100618.19;6258123;23;20000;-79
2022/05/23 00:36:27;;;;;;;8.05;4.88;;;;;;;17.54;58.53;100630.78;6255015;23;20078;-79
2022/05/23 00:38:55;;;;;;;12.10;6.50;;;;;;;17.52;58.85;100628.25;6254018;23;20000;-79
2022/05/23 00:44:33;;;;;;;11.55;6.38;;;;;;;17.50;59.41;100624.06;6258638;23;20066;-79
2022/05/23 00:47:16;;;;;;;11.35;6.22;;;;;;;17.48;59.26;100618.03;6255874;22;20341;-79
2022/05/23 00:49:42;;;;;;;12.85;6.15;;;;;;;17.48;59.31;100604.59;6257690;23;20362;-79
2022/05/23 00:52:11;;;;;;;10.40;6.25;;;;;;;17.42;59.51;100587.34;6258412;23;20016;-79
2022/05/23 00:54:43;;;;;;;13.18;6.22;;;;;;;17.41;59.11;100588.31;6258929;23;20008;-79
2022/05/23 00:57:18;;;;;;;11.35;6.38;;;;;;;17.34;59.41;100585.47;6257454;23;20031;-79
2022/05/23 00:59:43;;;;;;;11.73;6.40;;;;;;;17.35;59.23;100583.63;6257668;23;20000;-79
2022/05/23 01:02:12;;;;;;;10.13;6.13;;;;;;;17.28;59.48;100585.31;6256901;23;20440;-79
2022/05/23 01:04:38;;;;;;;10.20;5.80;;;;;;;17.26;59.47;100585.47;6256962;23;20467;-79
2022/05/23 01:07:04;;;;;;;14.70;6.97;;;;;;;17.25;58.84;100591.84;6258588;23;20007;-79
2022/05/23 01:09:29;;;;;;;12.02;6.55;;;;;;;17.23;59.57;100606.44;6231706;23;20027;-79
2022/05/23 01:11:56;;;;;;;12.25;6.40;;;;;;;17.20;59.31;100599.56;6257547;23;20015;-79
2022/05/23 01:14:22;;;;;;;14.82;7.18;;;;;;;17.18;59.48;100607.78;6257744;23;20007;-79
2022/05/23 01:16:47;;;;;;;11.05;6.80;;;;;;;17.19;59.23;100617.50;6231928;23;20004;-79
2022/05/23 01:19:13;;;;;;;11.30;6.43;;;;;;;17.15;59.71;100616.19;6231396;23;20008;-79
2022/05/23 01:22:19;;;;;;;10.70;6.33;;;;;;;17.19;58.52;100614.00;6243767;23;19995;-79
2022/05/23 01:24:53;;;;;;;11.55;6.13;;;;;;;17.11;60.11;100596.03;6236918;23;20245;-79
2022/05/23 01:27:19;;;;;;;16.52;6.68;;;;;;;17.11;60.66;100592.53;6254116;23;20054;-79
2022/05/23 01:29:45;;;;;;;11.02;6.10;;;;;;;17.10;59.73;100593.50;6254092;23;20004;-79
2022/05/23 01:32:11;;;;;;;9.98;6.07;;;;;;;17.05;59.97;100590.50;6256097;23;20004;-79
2022/05/23 01:34:36;;;;;;;15.50;6.93;;;;;;;17.05;59.54;100587.81;6256666;23;20000;-79
2022/05/23 01:37:02;;;;;;;11.20;6.22;;;;;;;17.01;59.88;100584.63;6230846;23;20023;-79
2022/05/23 01:39:27;;;;;;;15.32;7.32;;;;;;;16.98;59.89;100583.09;6257549;23;20053;-79
2022/05/23 01:41:52;;;;;;;10.40;5.73;;;;;;;16.98;60.44;100576.91;6257749;23;20024;-79
2022/05/23 01:44:18;;;;;;;10.90;6.23;;;;;;;16.95;60.85;100577.22;6229636;23;20243;-79
2022/05/23 01:46:43;;;;;;;11.10;6.18;;;;;;;16.95;60.76;100585.28;6255364;23;20275;-79
2022/05/23 01:49:11;;;;;;;13.65;6.90;;;;;;;16.91;60.18;100589.31;6255744;22;20011;-79
2022/05/23 01:51:36;;;;;;;10.77;5.72;;;;;;;16.87;61.19;100587.94;6257012;23;20023;-79
2022/05/23 01:54:02;;;;;;;11.00;6.40;;;;;;;16.85;61.09;100589.97;6256686;23;20012;-79
2022/05/23 01:56:27;;;;;;;11.48;6.22;;;;;;;16.83;60.62;100590.91;6259020;23;20307;-79
2022/05/23 02:01:37;;;;;;;10.98;6.75;;;;;;;16.76;60.96;100568.47;6259368;23;20022;-79
2022/05/23 02:04:03;;;;;;;12.85;6.95;;;;;;;16.74;61.39;100559.75;6232256;23;20336;-79
2022/05/23 02:06:28;;;;;;;12.25;6.85;;;;;;;16.72;61.46;100559.06;6258060;23;20000;-79
2022/05/23 02:08:53;;;;;;;12.00;7.17;;;;;;;16.72;61.43;100558.22;6231854;23;20008;-79
2022/05/23 02:11:19;;;;;;;12.40;6.50;;;;;;;16.71;61.61;100569.97;6230470;23;20829;-79
2022/05/23 02:13:45;;;;;;;11.65;6.95;;;;;;;16.68;62.39;100563.06;6256327;23;20250;-79
2022/05/23 02:16:11;;;;;;;12.60;6.22;;;;;;;16.69;62.43;100566.63;6255282;23;20008;-79
2022/05/23 02:18:36;;;;;;;12.45;7.18;;;;;;;16.67;62.36;100569.47;6256408;23;20504;-79
2022/05/23 02:21:02;;;;;;;11.32;6.85;;;;;;;16.64;62.83;100569.78;6258174;23;20008;-79
2022/05/23 02:23:27;;;;;;;10.35;6.63;;;;;;;16.66;63.03;100562.41;6270116;23;20418;-79
2022/05/23 02:25:52;;;;;;;11.38;6.82;;;;;;;16.63;62.34;100560.88;6269050;23;20014;-79
2022/05/23 02:28:21;;;;;;;12.53;6.93;;;;;;;16.62;62.15;100556.53;6232070;23;20004;-79
2022/05/23 02:30:48;;;;;;;12.98;6.95;;;;;;;16.59;62.30;100561.41;6257994;23;20255;-79
2022/05/23 02:33:14;;;;;;;11.25;6.43;;;;;;;16.55;62.34;100554.66;6258114;23;20004;-79
2022/05/23 02:35:40;;;;;;;10.55;6.13;;;;;;;16.55;62.51;100554.66;6257293;23;20027;-79
2022/05/23 02:38:05;;;;;;;12.98;6.30;;;;;;;16.54;63.25;100547.66;6257605;23;20000;-80
2022/05/23 02:40:31;;;;;;;12.90;7.22;;;;;;;16.50;62.62;100540.91;6260119;23;20342;-79
2022/05/23 02:42:56;;;;;;;14.02;6.43;;;;;;;16.50;62.62;100540.91;6259470;23;20000;-79
2022/05/23 02:45:21;;;;;;;12.10;6.50;;;;;;;16.51;63.00;100535.38;6258278;23;20004;-79
2022/05/23 02:47:46;;;;;;;9.50;6.75;;;;;;;16.49;64.06;100528.50;6258810;22;20236;-79
2022/05/23 02:50:13;;;;;;;11.87;7.80;;;;;;;16.48;63.43;100521.47;6259603;23;20365;-79
2022/05/23 02:52:39;;;;;;;11.18;7.07;;;;;;;16.46;64.17;100513.59;6256900;23;20249;-80
2022/05/23 02:55:06;;;;;;;10.18;6.88;;;;;;;16.43;64.06;100509.38;6258423;23;20005;-79
2022/05/23 02:57:31;;;;;;;13.00;7.35;;;;;;;16.43;63.25;100497.84;6259257;23;20007;-80
2022/05/23 02:59:57;;;;;;;12.63;7.03;;;;;;;16.38;63.67;100481.41;6258607;23;20008;-79
2022/05/23 03:05:08;;;;;;;12.02;7.32;;;;;;;16.33;63.89;100471.19;6258244;23;20031;-79
2022/05/23 03:07:33;;;;;;;11.85;7.45;;;;;;;16.30;63.78;100457.28;6258559;23;20012;-80
2022/05/23 03:09:59;;;;;;;11.07;7.00;;;;;;;16.30;64.00;100452.75;6258655;23;20079;-79
2022/05/23 03:12:26;;;;;;;14.48;7.55;;;;;;;16.28;64.18;100442.19;6259659;23;20384;-79
2022/05/23 03:14:52;;;;;;;17.00;7.97;;;;;;;16.26;63.93;100446.88;6258106;23;20004;-80
2022/05/23 03:17:17;;;;;;;12.00;7.10;;;;;;;16.22;64.05;100442.88;6261311;23;20000;-79
2022/05/23 03:19:43;;;;;;;14.25;7.65;;;;;;;16.20;64.48;100438.66;6260506;23;20054;-79
2022/05/23 03:27:38;;;;;;;13.18;7.65;;;;;;;16.18;64.96;100422.75;6258852;23;20587;-79
2022/05/23 03:30:05;;;;;;;13.32;8.13;;;;;;;16.16;64.97;100419.41;6257688;23;20079;-79
2022/05/23 03:32:30;;;;;;;14.57;7.35;;;;;;;16.14;65.41;100420.56;6257821;23;20004;-79
2022/05/23 03:34:56;;;;;;;13.88;7.63;;;;;;;16.16;65.05;100413.22;6230007;23;20004;-79
2022/05/23 03:37:21;;;;;;;10.63;7.60;;;;;;;16.14;65.07;100409.84;6258380;23;20007;-79
2022/05/23 03:39:46;;;;;;;15.57;7.93;;;;;;;16.14;65.28;100397.31;6257359;23;20009;-80
2022/05/23 03:42:12;;;;;;;16.35;7.95;;;;;;;16.10;65.66;100395.94;6256623;23;20007;-79
2022/05/23 03:44:37;;;;;;;13.70;7.45;;;;;;;16.08;65.45;100389.91;6255148;23;20004;-79
2022/05/23 03:47:03;;;;;;;12.00;7.68;;;;;;;16.05;65.45;100391.09;6255971;22;20011;-79
2022/05/23 03:49:29;;;;;;;12.60;8.20;;;;;;;16.08;65.76;100393.41;6257345;23;20008;-79
2022/05/23 03:51:55;;;;;;;11.65;7.55;;;;;;;16.06;66.11;100389.25;6255580;23;20004;-78
2022/05/23 03:54:20;;;;;;;11.63;7.72;;;;;;;16.04;66.66;100386.72;6255138;23;20032;-78
2022/05/23 03:56:46;;;;;;;14.38;8.00;;;;;;;16.06;66.17;100384.72;6255394;23;20014;-79
2022/05/23 03:59:11;;;;;;;15.93;8.35;;;;;;;16.04;65.67;100381.38;6254388;23;20013;-78
2022/05/23 04:01:37;;;;;;;13.65;7.72;;;;;;;16.00;66.68;100369.28;6258758;23;20015;-78
2022/05/23 04:04:06;;;;;;;14.43;8.32;;;;;;;16.02;66.79;100379.84;6228541;23;20008;-79
2022/05/23 04:06:32;;;;;;;14.27;9.00;;;;;;;16.02;66.36;100371.81;6226909;23;20209;-79
2022/05/23 04:08:57;;;;;;;14.38;7.82;;;;;;;16.02;66.51;100375.34;6254750;23;20008;-78
2022/05/23 04:11:22;;;;;;;15.32;7.82;;;;;;;15.99;66.57;100364.97;6255380;23;20000;-79
2022/05/23 04:13:48;;;;;;;14.03;7.90;;;;;;;15.98;66.72;100362.44;6256774;23;20011;-79
2022/05/23 04:16:13;;;;;;;12.05;7.68;;;;;;;15.99;67.05;100356.91;6255761;23;20270;-79
2022/05/23 04:18:39;;;;;;;13.82;8.45;;;;;;;15.96;66.59;100351.88;6258513;23;20417;-79
2022/05/23 04:21:05;;;;;;;13.80;7.38;;;;;;;15.98;66.58;100349.88;6256368;23;20004;-79
2022/05/23 04:23:30;;;;;;;11.05;7.43;;;;;;;16.00;67.41;100355.06;6257672;23;20437;-79
2022/05/23 04:26:01;;;;;;;12.05;7.60;;;;;;;15.98;67.67;100357.09;6256453;23;20385;-78
2022/05/23 04:28:26;;;;;;;14.70;7.82;;;;;;;15.95;68.18;100347.53;6228299;23;20028;-79
2022/05/23 04:30:51;;;;;;;11.23;7.80;;;;;;;15.96;68.37;100348.38;6255223;23;20000;-78
2022/05/23 04:36:00;;;;;;;16.38;7.72;;;;;;;15.96;67.79;100341.19;6255454;23;20375;-79
2022/05/23 04:38:26;;;;;;;11.13;7.30;;;;;;;16.00;68.40;100347.88;6227472;23;20000;-79
2022/05/23 04:40:51;;;;;;;14.20;7.93;;;;;;;15.99;67.72;100351.56;6254514;23;20310;-79
2022/05/23 04:43:17;;;;;;;12.13;7.73;;;;;;;16.01;67.47;100338.00;6255268;23;20322;-78
2022/05/23 04:45:42;;;;;;;12.68;7.18;;;;;;;16.01;68.27;100332.66;6256286;23;20267;-79
2022/05/23 04:50:52;;;;;;;12.32;7.32;;;;;;;16.05;67.85;100329.47;6255927;23;20019;-79
2022/05/23 04:53:18;;;;;;;11.35;7.80;;;;;;;16.08;67.89;100321.09;6254953;23;20000;-78
2022/05/23 04:55:43;;;;;;;13.07;7.28;;;;;;;16.10;68.44;100318.25;6255990;23;20079;-79
2022/05/23 04:58:10;;;;;;;9.40;6.47;;;;;;;16.13;68.07;100320.59;6256451;23;20303;-79
2022/05/23 05:00:36;;;;;;;11.18;7.43;;;;;;;16.15;67.96;100325.78;6228595;23;20540;-79
2022/05/23 05:03:01;;;;;;;11.38;6.75;;;;;;;16.16;68.49;100320.25;6253808;23;20004;-79
2022/05/23 05:05:28;;;;;;;12.00;7.75;;;;;;;16.20;67.77;100321.59;6254723;23;20005;-79
2022/05/23 05:07:56;;;;;;;11.23;7.22;;;;;;;16.23;68.30;100315.91;6255084;23;20004;-79
2022/05/23 05:10:23;;;;;;;8.95;6.78;;;;;;;16.30;68.58;100317.91;6253456;23;20004;-80
2022/05/23 05:12:52;;;;;;;14.23;7.22;;;;;;;16.32;68.15;100316.75;6254511;23;19996;-78
2022/05/23 05:15:18;;;;;;;11.93;6.93;;;;;;;16.38;68.34;100297.31;6227443;23;20004;-78
2022/05/23 05:17:44;;;;;;;14.63;6.50;;;;;;;16.43;67.71;100294.94;6256207;23;20031;-79
2022/05/23 05:20:11;;;;;;;13.65;6.72;;;;;;;16.50;67.53;100283.56;6255532;23;20010;-79
2022/05/23 05:22:36;;;;;;;11.75;6.13;;;;;;;16.55;68.01;100281.19;6255084;23;20366;-79
2022/05/23 05:25:04;;;;;;;9.43;6.63;;;;;;;16.57;67.21;100271.13;6255739;23;20000;-79
2022/05/23 05:27:29;;;;;;;8.73;5.75;;;;;;;16.63;67.80;100273.97;6230693;23;20004;-79
2022/05/23 05:29:55;;;;;;;14.47;6.27;;;;;;;16.68;66.71;100273.47;6257791;23;20004;-79
2022/05/23 05:32:37;;;;;;;10.18;7.10;;;;;;;16.74;66.12;100264.75;6229153;23;20723;-79
2022/05/23 05:35:14;;;;;;;10.27;6.10;;;;;;;16.77;66.49;100267.09;6254405;23;20004;-79
2022/05/23 05:37:50;;;;;;;10.65;6.80;;;;;;;16.83;66.29;100255.66;6257169;23;20019;-80
2022/05/23 05:40:20;;;;;;;11.02;7.03;;;;;;;16.86;65.76;100246.47;6257384;23;20095;-79
2022/05/23 05:42:53;;;;;;;8.80;6.75;;;;;;;16.90;65.88;100250.47;6255690;23;20012;-79
2022/05/23 05:45:29;;;;;;;11.23;6.50;;;;;;;16.94;66.05;100249.13;6232078;23;20094;-79
2022/05/23 05:47:54;;;;;;;11.82;6.55;;;;;;;17.02;66.81;100242.91;6228043;23;20035;-79
2022/05/23 05:50:26;;;;;;;13.02;7.05;;;;;;;17.08;65.84;100235.97;6226922;23;20072;-79
2022/05/23 05:52:56;;;;;;;10.45;6.60;;;;;;;17.15;65.29;100236.94;6255877;23;20000;-79
2022/05/23 05:55:21;;;;;;;8.73;6.43;;;;;;;17.21;64.78;100230.88;6255302;23;20004;-79
2022/05/23 05:57:47;;;;;;;12.10;6.93;;;;;;;17.25;64.21;100226.00;6256079;23;20008;-79
2022/05/23 06:00:13;;;;;;;8.60;6.18;;;;;;;17.31;64.48;100227.97;6255060;23;20069;-79
2022/05/23 06:02:39;;;;;;;8.75;6.45;;;;;;;17.36;64.27;100230.97;6254483;23;20004;-79
2022/05/23 06:05:04;;;;;;;13.50;7.05;;;;;;;17.42;64.23;100230.28;6228952;23;20012;-79
2022/05/23 06:13:19;;;;;;;8.90;6.53;;;;;;;17.64;63.42;100225.91;6128449;23;20017;-80
2022/05/23 06:15:45;;;;;;;12.60;7.07;;;;;;;17.70;62.86;100221.66;6175321;23;20012;-81
2022/05/23 06:18:11;;;;;;;7.40;6.60;;;;;;;17.79;63.45;100217.91;6253900;23;20027;-79
2022/05/23 06:20:36;;;;;;;10.65;6.57;;;;;;;17.87;62.73;100217.88;6255212;23;20015;-79
2022/05/23 06:23:02;;;;;;;10.18;6.43;;;;;;;17.98;63.66;100216.59;6255238;23;20075;-80
2022/05/23 06:25:28;;;;;;;6.65;5.60;;;;;;;18.03;61.42;100208.00;6254818;23;20075;-81
2022/05/23 06:27:53;;;;;;;10.93;6.13;;;;;;;18.11;61.61;100198.00;6263802;22;20061;-83
2022/05/23 06:30:19;;;;;;;10.68;6.00;;;;;;;18.18;61.10;100195.41;6235278;23;20028;-81
2022/05/23 06:32:45;;;;;;;7.63;6.65;;;;;;;18.27;61.74;100196.19;6259858;23;20007;-80
2022/05/23 06:35:11;;;;;;;11.77;7.65;;;;;;;18.36;61.01;100195.06;6257909;23;20000;-80
2022/05/23 06:37:40;;;;;;;11.35;7.43;;;;;;;18.48;60.59;100199.00;6268918;23;20020;-81
2022/05/23 06:40:11;;;;;;;15.13;6.90;;;;;;;18.59;61.23;100192.31;6268707;23;20007;-81
2022/05/23 06:42:37;;;;;;;12.05;6.65;;;;;;;18.72;60.98;100204.25;6269639;23;20007;-78
2022/05/23 06:45:03;;;;;;;7.53;6.40;;;;;;;18.77;59.36;100202.69;6265919;23;20011;-80
2022/05/23 06:47:29;;;;;;;9.27;6.07;;;;;;;18.90;58.72;100195.81;6266120;22;20085;-81
2022/05/23 06:49:54;;;;;;;10.90;6.37;;;;;;;19.07;58.66;100191.06;6264720;23;20004;-80
2022/05/23 06:52:20;;;;;;;9.43;6.00;;;;;;;19.28;57.40;100199.16;6262589;23;20259;-79
2022/05/23 06:54:45;;;;;;;8.25;5.57;;;;;;;19.42;57.50;100189.38;6262134;23;20000;-78
2022/05/23 06:57:11;;;;;;;12.15;5.90;;;;;;;19.53;57.52;100193.41;6264768;23;20023;-79
2022/05/23 06:59:37;;;;;;;11.38;5.22;;;;;;;19.58;56.87;100193.66;6265889;23;20027;-79
2022/05/23 07:02:02;;;;;;;7.85;5.32;;;;;;;19.64;56.80;100198.28;6266996;23;20007;-78
2022/05/23 07:12:41;;;;;;;7.63;5.00;;;;;;;19.89;55.52;100196.06;6264667;23;20043;-79
2022/05/23 07:15:07;;;;;;;7.77;4.60;;;;;;;19.88;56.00;100191.69;6263692;23;20008;-79
2022/05/23 07:17:32;;;;;;;11.38;4.90;;;;;;;19.88;55.28;100191.69;6270257;22;20250;-81
2022/05/23 07:19:58;;;;;;;11.47;4.77;;;;;;;19.84;56.84;100182.34;6265049;23;20051;-80
2022/05/23 07:22:23;;;;;;;9.95;4.90;;;;;;;19.89;57.04;100184.44;6266005;23;20259;-81
2022/05/23 07:24:49;;;;;;;9.88;5.20;;;;;;;19.89;56.07;100184.44;6238231;23;20108;-80
2022/05/23 07:27:14;;;;;;;11.38;4.85;;;;;;;19.87;56.34;100184.66;6265963;23;20008;-80
2022/05/23 07:29:40;;;;;;;10.10;5.00;;;;;;;19.93;56.25;100196.50;6264565;23;20008;-80
2022/05/23 07:32:07;;;;;;;17.23;4.85;;;;;;;19.94;56.39;100200.88;6268369;23;20008;-80
2022/05/23 07:34:33;;;;;;;9.70;4.93;;;;;;;19.92;56.33;100192.97;6269423;22;19995;-81
2022/05/23 07:36:59;;;;;;;10.13;4.85;;;;;;;19.99;55.96;100189.50;6274081;22;20042;-81
2022/05/23 07:39:24;;;;;;;13.75;5.22;;;;;;;20.00;55.74;100191.16;6274486;22;20004;-81
2022/05/23 07:41:53;;;;;;;8.48;4.72;;;;;;;20.02;55.93;100195.34;6274234;22;20050;-81
2022/05/23 07:44:18;;;;;;;9.03;5.27;;;;;;;20.09;56.24;100177.34;6273430;22;20011;-80
2022/05/23 07:46:43;;;;;;;10.47;4.97;;;;;;;20.28;56.22;100169.59;6247819;22;20024;-81
2022/05/23 07:49:09;;;;;;;8.48;4.85;;;;;;;20.43;55.19;100172.97;6274459;22;20258;-81
2022/05/23 07:51:34;;;;;;;13.35;5.20;;;;;;;20.60;56.10;100173.50;6275145;22;19992;-81
2022/05/23 08:02:17;;;;;;;9.88;4.13;;;;;;;21.25;51.76;100174.00;6275315;22;20035;-80
2022/05/23 08:04:43;;;;;;;9.52;4.13;;;;;;;21.38;51.07;100169.63;6244192;23;20016;-77
2022/05/23 08:07:09;;;;;;;6.07;3.50;;;;;;;21.47;50.42;100160.34;6265906;23;20050;-77
2022/05/23 08:09:36;;;;;;;8.43;4.20;;;;;;;21.58;50.22;100150.78;6266312;23;20008;-78
2022/05/23 08:12:03;;;;;;;9.05;4.32;;;;;;;21.64;51.01;100144.56;6270989;22;20012;-78
2022/05/23 08:14:28;;;;;;;7.50;4.03;;;;;;;21.68;50.23;100137.69;6271395;23;20008;-77
2022/05/23 08:16:54;;;;;;;5.80;3.80;;;;;;;21.61;50.36;100136.88;6267672;23;20034;-78
2022/05/23 08:19:19;;;;;;;9.57;4.60;;;;;;;21.59;51.08;100142.47;6269100;23;20014;-77
2022/05/23 08:21:51;;;;;;;11.00;4.05;;;;;;;21.54;50.95;100134.16;6268850;23;20028;-77
2022/05/23 08:24:17;;;;;;;10.70;4.10;;;;;;;21.51;51.12;100131.88;6268044;23;20083;-77
2022/05/23 08:26:43;;;;;;;9.68;4.32;;;;;;;21.55;50.93;100129.56;6268822;23;19995;-77
2022/05/23 08:29:09;;;;;;;6.90;4.00;;;;;;;21.58;51.04;100132.72;6270640;23;20008;-77
2022/05/23 08:31:36;;;;;;;7.30;4.30;;;;;;;21.57;52.41;100124.81;6271835;23;20015;-78
2022/05/23 08:34:01;;;;;;;7.25;4.10;;;;;;;21.51;51.41;100123.75;6270820;23;20022;-78
2022/05/23 08:36:26;;;;;;;8.32;4.30;;;;;;;21.42;51.19;100120.41;6270833;23;19988;-78
2022/05/23 08:38:52;;;;;;;7.85;3.92;;;;;;;21.49;50.96;100114.22;6266473;23;20004;-77
2022/05/23 08:41:24;;;;;;;10.77;4.20;;;;;;;21.46;50.86;100096.50;6237390;23;20004;-77
2022/05/23 08:44:16;;;;;;;8.48;4.50;;;;;;;21.59;51.47;100098.41;6261622;23;20015;-76
2022/05/23 08:47:03;;;;;;;9.63;4.40;;;;;;;21.65;50.36;100094.03;6266239;23;20083;-78
2022/05/23 08:49:45;;;;;;;11.88;4.40;;;;;;;21.65;50.37;100085.94;6262550;23;20016;-79
2022/05/23 08:52:30;;;;;;;10.10;4.53;;;;;;;21.70;49.78;100094.22;6268533;23;20050;-79
2022/05/23 08:55:02;;;;;;;7.00;4.28;;;;;;;21.80;50.89;100084.69;6269349;23;20031;-79
2022/05/23 08:57:35;;;;;;;7.45;4.30;;;;;;;21.89;50.16;100082.56;6270896;23;20008;-78
2022/05/23 09:00:05;;;;;;;6.72;4.18;;;;;;;21.88;49.65;100075.50;6272115;23;20000;-78
2022/05/23 09:02:53;;;;;;;12.93;4.20;;;;;;;21.97;49.95;100085.06;6270779;23;20778;-77
2022/05/23 09:05:23;;;;;;;11.13;4.20;;;;;;;21.95;49.18;100079.03;6271378;22;20000;-78
2022/05/23 09:07:58;;;;;;;11.50;4.57;;;;;;;22.05;49.76;100066.94;6271727;23;20008;-79
2022/05/23 09:10:30;;;;;;;12.82;3.80;;;;;;;22.00;49.79;100062.19;6271898;23;20004;-79
2022/05/23 09:12:56;;;;;;;10.73;4.05;;;;;;;21.99;51.45;100055.94;6271030;23;20035;-79
2022/05/23 09:15:23;;;;;;;13.93;4.30;;;;;;;22.00;49.57;100059.47;6272270;22;20000;-80
2022/05/23 09:18:03;;;;;;;7.22;3.72;;;;;;;22.03;51.81;100050.09;6270876;23;20000;-79
2022/05/23 09:20:38;;;;;;;8.80;4.00;;;;;;;22.07;50.64;100051.34;6270908;23;20011;-80
2022/05/23 09:23:10;;;;;;;13.52;4.00;;;;;;;22.09;50.17;100058.19;6270588;23;20012;-80
2022/05/23 09:25:36;;;;;;;10.27;3.83;;;;;;;21.99;50.40;100049.69;6272131;22;19992;-79
2022/05/23 09:28:34;;;;;;;10.98;3.80;;;;;;;22.07;52.08;100045.94;6272601;23;20022;-79
2022/05/23 09:31:38;;;;;;;9.10;4.13;;;;;;;22.08;51.19;100042.19;6269772;23;20000;-80
2022/05/23 09:34:05;;;;;;;9.40;3.75;;;;;;;21.98;50.45;100029.94;6211715;23;20015;-81
2022/05/23 09:36:40;;;;;;;7.10;3.97;;;;;;;22.07;51.58;100022.44;6244906;23;20015;-80
2022/05/23 09:39:11;;;;;;;8.38;3.85;;;;;;;22.14;50.69;100009.69;6271362;23;20011;-79
2022/05/23 09:49:57;;;;;;;10.43;3.78;;;;;;;22.38;49.60;100001.09;6262814;23;20015;-80
2022/05/23 09:52:36;;;;;;;6.53;4.47;;;;;;;22.43;49.57;99993.16;6255918;23;20000;-78
2022/05/23 09:55:03;;;;;;;;;;;;;;;22.64;50.35;99978.47;6258402;23;20004;-78
2022/05/23 09:57:39;;;;;;;6.90;4.20;;;;;;;23.01;48.12;99970.50;6259121;23;20318;-78
2022/05/23 10:00:23;;;;;;;8.05;3.75;;;;;;;23.65;48.14;99965.75;6230629;23;20011;-78
2022/05/23 10:02:51;;;;;;;6.05;3.85;;;;;;;24.20;46.47;99956.78;6234054;23;20015;-78
2022/05/23 10:05:30;;;;;;;5.88;4.00;;;;;;;24.45;45.90;99959.38;6261949;23;20338;-78
2022/05/23 10:08:04;;;;;;;6.72;3.80;;;;;;;24.70;44.93;99951.06;6258773;23;20065;-79
2022/05/23 10:10:36;;;;;;;11.02;4.25;;;;;;;24.97;44.93;99950.66;6249785;23;20396;-80
2022/05/23 10:13:18;;;;;;;8.43;4.25;;;;;;;25.47;45.44;99949.38;6260218;23;20004;-78
2022/05/23 10:15:49;;;;;;;9.10;3.88;;;;;;;25.80;42.17;99943.31;6264144;23;20012;-79
2022/05/23 10:18:24;;;;;;;10.25;4.40;;;;;;;26.30;42.02;99951.94;6261978;23;20004;-79
2022/05/23 10:20:49;;;;;;;8.98;4.03;;;;;;;26.49;40.03;99955.25;6262769;23;20014;-80
2022/05/23 10:23:20;;;;;;;5.97;3.70;;;;;;;26.71;40.43;99963.56;6261588;23;20001;-79
2022/05/23 10:26:03;;;;;;;7.28;3.90;;;;;;;27.09;39.57;99957.38;6262382;23;20007;-79
2022/05/23 10:28:34;;;;;;;7.30;3.97;;;;;;;27.39;38.03;99956.22;6260538;23;20011;-79
2022/05/23 10:31:17;;;;;;;7.93;3.30;;;;;;;27.67;39.78;99946.25;6259129;23;20004;-79
2022/05/23 10:33:46;;;;;;;9.50;3.50;;;;;;;27.79;37.02;99936.03;6259525;23;20000;-79
2022/05/23 10:36:18;;;;;;;11.30;3.92;;;;;;;28.02;37.00;99939.59;6261616;23;20004;-79
2022/05/23 10:42:13;;;;;;;11.25;3.83;;;;;;;28.51;38.50;99928.66;6275642;23;19996;-81
2022/05/23 10:44:57;;;;;;;7.20;3.55;;;;;;;28.88;37.36;99918.84;6215166;23;20417;-80
2022/05/23 10:47:44;;;;;;;8.45;3.35;;;;;;;29.00;35.79;99910.50;6263788;22;20480;-78
2022/05/23 10:50:25;;;;;;;6.90;3.20;;;;;;;29.16;35.11;99891.19;6261338;23;20004;-78
2022/05/23 10:53:13;;;;;;;8.02;3.45;;;;;;;29.61;36.29;99894.44;6261355;23;20000;-80
2022/05/23 10:56:15;;;;;;;8.45;3.53;;;;;;;29.61;34.98;99888.13;6270663;23;20019;-80
2022/05/23 10:58:56;;;;;;;8.82;3.38;;;;;;;30.13;33.62;99889.97;6268919;23;20007;-80
2022/05/23 11:02:00;;;;;;;3.97;2.65;;;;;;;30.35;33.08;99880.69;6261657;23;20008;-80
2022/05/23 11:04:49;;;;;;;6.55;3.40;;;;;;;30.34;31.63;99877.09;6263285;23;20012;-80
2022/05/23 11:07:38;;;;;;;5.60;3.10;;;;;;;30.43;32.53;99855.53;6263461;23;20011;-80
2022/05/23 11:10:10;;;;;;;5.53;3.35;;;;;;;30.51;32.08;99843.19;6265921;23;20469;-80
2022/05/23 11:12:53;;;;;;;6.70;3.88;;;;;;;30.67;33.00;99833.03;6260850;23;20000;-80
2022/05/23 11:15:39;;;;;;;14.40;3.28;;;;;;;30.63;33.54;99816.31;6256860;23;20010;-79
2022/05/23 11:18:21;;;;;;;6.00;2.80;;;;;;;30.67;31.95;99811.91;6255136;23;20066;-79
2022/05/23 11:20:49;;;;;;;6.55;2.90;;;;;;;30.43;29.55;99812.50;6253160;23;20004;-80
2022/05/23 11:23:35;;;;;;;4.82;2.00;;;;;;;30.15;28.61;99799.34;6251182;23;20012;-80
2022/05/23 11:26:18;;;;;;;4.80;2.28;;;;;;;29.99;31.42;99802.03;6251377;23;20370;-80
2022/05/23 11:34:52;;;;;;;5.53;2.08;;;;;;;29.10;31.73;99793.00;6257464;23;20069;-79
2022/05/23 11:39:57;;;;;;;5.20;1.85;;;;;;;28.88;29.93;99785.78;6268715;23;20012;-80
2022/05/23 11:42:22;;;;;;;4.50;1.80;;;;;;;28.74;30.32;99782.66;6257922;23;20004;-80
2022/05/23 11:44:50;;;;;;;5.93;2.20;;;;;;;28.57;31.04;99780.09;6263547;23;20087;-80
2022/05/23 11:47:25;;;;;;;;;;;;;;;28.83;33.32;99772.09;6260027;22;20004;-80
2022/05/23 11:49:59;;;;;;;5.50;1.88;;;;;;;28.39;32.91;99770.38;6261050;23;19914;-80
2022/05/23 11:52:31;;;;;;;5.32;2.08;;;;;;;28.14;31.76;99765.56;6261270;23;20035;-78
2022/05/23 11:54:56;;;;;;;4.28;1.90;;;;;;;27.87;31.59;99760.94;6261721;23;20004;-79
2022/05/23 11:57:37;;;;;;;4.03;1.95;;;;;;;27.89;32.86;99752.47;6203559;23;20418;-78
2022/05/23 12:00:06;;;;;;;6.70;2.33;;;;;;;27.61;32.53;99751.69;6266274;22;20008;-80
2022/05/23 12:02:37;;;;;;;7.00;2.35;;;;;;;27.61;32.42;99748.13;6273185;23;19989;-78
2022/05/23 12:05:02;;;;;;;3.05;1.70;;;;;;;27.60;33.29;99744.59;6270666;22;20016;-78
2022/05/23 12:07:37;;;;;;;5.50;1.90;;;;;;;27.49;35.08;99746.38;6271579;22;20048;-77
2022/05/23 12:10:20;;;;;;;5.65;2.40;;;;;;;27.36;34.03;99748.69;6273700;22;19988;-80
2022/05/23 12:12:49;;;;;;;4.82;2.13;;;;;;;27.17;33.69;99740.00;6246087;23;19988;-79
2022/05/23 12:15:42;;;;;;;4.82;2.40;;;;;;;27.16;34.67;99746.50;6272721;22;20000;-80
2022/05/23 12:18:24;;;;;;;5.00;1.98;;;;;;;26.91;35.74;99739.66;6273449;22;19996;-80
2022/05/23 12:20:57;;;;;;;4.43;2.17;;;;;;;26.84;35.52;99734.38;6274339;22;20015;-81
2022/05/23 12:23:43;;;;;;;6.45;2.20;;;;;;;26.82;36.72;99736.56;6274420;22;20041;-81
2022/05/23 12:26:12;;;;;;;7.47;1.88;;;;;;;26.70;35.62;99733.94;6273340;22;20000;-79
2022/05/23 12:28:44;;;;;;;4.05;2.20;;;;;;;26.51;35.47;99730.66;6270833;23;20028;-77
2022/05/23 12:31:13;;;;;;;3.53;2.08;;;;;;;26.43;36.21;99732.97;6264464;23;20000;-77
2022/05/23 12:33:45;;;;;;;6.63;2.15;;;;;;;26.37;37.42;99724.72;6266763;23;20027;-77
2022/05/23 12:36:11;;;;;;;7.85;2.08;;;;;;;26.37;37.45;99716.56;6268575;23;20004;-77
2022/05/23 12:39:11;;;;;;;5.95;1.90;;;;;;;26.37;37.00;99723.91;6263861;23;20007;-76